createdAt,value
2023-03-25T00:01:50.346Z,19.83
2023-03-25T00:04:17.725Z,23.05
2023-03-25T00:06:44.191Z,7.88
2023-03-25T00:09:10.578Z,13.75
2023-03-25T00:11:36.941Z,11.68
2023-03-25T00:14:04.424Z,17.02
2023-03-25T00:16:30.835Z,12.38
2023-03-25T00:19:00.206Z,21.77
2023-03-25T00:21:26.548Z,16.42
2023-03-25T00:23:52.884Z,19.10
2023-03-25T00:26:19.234Z,19.58
2023-03-25T00:28:45.718Z,15.80
2023-03-25T00:31:12.959Z,10.73
2023-03-25T00:33:41.712Z,10.40
2023-03-25T00:36:08.574Z,12.18
2023-03-25T00:38:35.477Z,12.90
2023-03-25T00:41:28.490Z,22.17
2023-03-25T00:43:55.698Z,15.63
2023-03-25T00:46:23.375Z,14.68
2023-03-25T00:48:50.712Z,13.45
2023-03-25T00:51:21.314Z,23.80
2023-03-25T00:53:48.385Z,16.95
2023-03-25T00:56:14.726Z,17.67
2023-03-25T00:58:41.322Z,21.35
2023-03-25T01:01:13.300Z,17.52
2023-03-25T01:03:40.315Z,19.45
2023-03-25T01:06:11.571Z,16.67
2023-03-25T01:08:38.592Z,16.67
2023-03-25T01:11:05.530Z,24.73
2023-03-25T01:13:31.855Z,22.30
2023-03-25T01:15:58.383Z,21.83
2023-03-25T01:18:24.802Z,15.25
2023-03-25T01:20:51.616Z,12.02
2023-03-25T01:23:17.985Z,20.38
2023-03-25T01:25:44.309Z,20.05
2023-03-25T01:28:10.814Z,14.90
2023-03-25T01:30:37.196Z,15.77
2023-03-25T01:33:03.583Z,14.15
2023-03-25T01:35:30.095Z,20.95
2023-03-25T01:37:56.533Z,16.45
2023-03-25T01:40:24.118Z,17.88
2023-03-25T01:42:51.478Z,19.75
2023-03-25T01:45:19.260Z,12.18
2023-03-25T01:47:46.894Z,13.05
2023-03-25T01:50:14.629Z,13.15
2023-03-25T01:52:43.613Z,24.13
2023-03-25T01:55:10.408Z,21.35
2023-03-25T01:57:41.708Z,19.92
2023-03-25T02:00:09.576Z,14.48
2023-03-25T02:02:36.761Z,17.90
2023-03-25T02:05:12.161Z,19.15
2023-03-25T02:07:42.609Z,21.90
2023-03-25T02:10:10.642Z,18.65
2023-03-25T02:12:36.977Z,14.02
2023-03-25T02:15:05.205Z,19.13
2023-03-25T02:17:42.752Z,21.83
2023-03-25T02:20:36.045Z,27.45
2023-03-25T02:23:22.088Z,22.10
2023-03-25T02:28:15.170Z,24.40
2023-03-25T02:30:56.890Z,27.13
2023-03-25T02:33:25.977Z,23.70
2023-03-25T02:36:01.329Z,24.85
2023-03-25T02:38:31.255Z,23.88
2023-03-25T02:41:01.547Z,28.85
2023-03-25T02:43:27.947Z,22.52
2023-03-25T02:45:56.218Z,23.40
2023-03-25T02:48:25.604Z,26.42
2023-03-25T02:50:54.004Z,18.80
2023-03-25T02:53:24.973Z,25.05
2023-03-25T02:55:52.978Z,23.45
2023-03-25T02:58:21.475Z,23.20
2023-03-25T03:00:49.111Z,24.30
2023-03-25T03:03:16.120Z,23.63
2023-03-25T03:05:48.731Z,25.45
2023-03-25T03:08:19.472Z,20.38
2023-03-25T03:11:09.180Z,27.38
2023-03-25T03:13:38.417Z,25.13
2023-03-25T03:16:04.821Z,24.23
2023-03-25T03:18:34.345Z,21.15
2023-03-25T03:21:08.747Z,23.95
2023-03-25T03:23:41.116Z,21.10
2023-03-25T03:26:22.134Z,26.42
2023-03-25T03:28:57.983Z,20.00
2023-03-25T03:34:18.760Z,31.00
2023-03-25T03:36:47.463Z,23.90
2023-03-25T03:39:19.850Z,26.92
2023-03-25T03:41:48.686Z,24.00
2023-03-25T03:44:16.956Z,19.33
2023-03-25T03:46:46.170Z,29.10
2023-03-25T03:49:17.065Z,31.98
2023-03-25T03:51:47.047Z,21.08
2023-03-25T03:54:22.473Z,18.52
2023-03-25T03:56:58.299Z,21.50
2023-03-25T03:59:47.730Z,27.65
2023-03-25T04:02:27.225Z,26.23
2023-03-25T04:04:54.648Z,29.08
2023-03-25T04:07:27.800Z,19.10
2023-03-25T04:09:57.498Z,27.00
2023-03-25T04:12:37.715Z,21.98
2023-03-25T04:15:05.814Z,20.40
2023-03-25T04:17:35.400Z,26.52
2023-03-25T04:20:08.826Z,31.83
2023-03-25T04:22:37.782Z,22.77
2023-03-25T04:25:05.847Z,32.15
2023-03-25T04:27:32.779Z,30.38
2023-03-25T04:30:01.701Z,26.27
2023-03-25T04:32:28.261Z,23.80
2023-03-25T04:34:57.663Z,27.90
2023-03-25T04:37:27.701Z,21.42
2023-03-25T04:39:56.102Z,23.48
2023-03-25T04:42:25.733Z,18.17
2023-03-25T04:44:52.828Z,22.05
2023-03-25T04:47:21.986Z,24.80
2023-03-25T04:49:48.433Z,28.98
2023-03-25T04:52:14.762Z,23.90
2023-03-25T04:54:41.152Z,29.08
2023-03-25T04:57:10.697Z,17.83
2023-03-25T04:59:37.146Z,16.92
2023-03-25T05:02:05.851Z,29.10
2023-03-25T05:04:32.462Z,20.98
2023-03-25T05:06:58.918Z,26.63
2023-03-25T05:09:25.282Z,20.58
2023-03-25T05:11:52.463Z,23.15
2023-03-25T05:14:19.832Z,19.92
2023-03-25T05:16:46.613Z,28.75
2023-03-25T05:19:13.254Z,18.95
2023-03-25T05:21:41.072Z,30.00
2023-03-25T05:24:11.657Z,27.88
2023-03-25T05:26:39.675Z,25.38
2023-03-25T05:29:14.237Z,23.38
2023-03-25T05:31:42.673Z,30.05
2023-03-25T05:34:09.349Z,20.52
2023-03-25T05:36:35.742Z,26.00
2023-03-25T05:39:02.506Z,34.97
2023-03-25T05:41:39.098Z,33.85
2023-03-25T05:44:09.553Z,17.27
2023-03-25T05:46:36.239Z,24.80
2023-03-25T05:49:03.006Z,27.58
2023-03-25T05:51:33.767Z,28.55
2023-03-25T05:54:01.516Z,23.98
2023-03-25T05:56:28.331Z,18.98
2023-03-25T05:58:54.967Z,18.13
2023-03-25T06:01:32.845Z,25.98
2023-03-25T06:04:03.946Z,25.60
2023-03-25T06:06:32.120Z,21.30
2023-03-25T06:08:58.941Z,25.33
2023-03-25T06:11:25.682Z,28.00
2023-03-25T06:13:52.134Z,19.38
2023-03-25T06:16:20.312Z,20.42
2023-03-25T06:18:56.068Z,29.67
2023-03-25T06:21:23.338Z,19.98
2023-03-25T06:23:49.649Z,22.92
2023-03-25T06:26:16.861Z,25.48
2023-03-25T06:28:43.405Z,21.35
2023-03-25T06:31:17.256Z,21.48
2023-03-25T06:33:44.299Z,17.50
2023-03-25T06:36:11.789Z,23.42
2023-03-25T06:38:38.751Z,19.88
2023-03-25T06:41:07.203Z,15.93
2023-03-25T06:43:34.231Z,22.67
2023-03-25T06:46:00.625Z,25.55
2023-03-25T06:48:27.174Z,17.88
2023-03-25T06:50:53.657Z,18.40
2023-03-25T06:53:20.367Z,15.95
2023-03-25T06:55:46.969Z,19.02
2023-03-25T06:58:13.380Z,20.58
2023-03-25T07:00:39.828Z,24.67
2023-03-25T07:03:06.197Z,25.48
2023-03-25T07:05:32.678Z,20.75
2023-03-25T07:07:59.274Z,18.58
2023-03-25T07:10:25.983Z,17.80
2023-03-25T07:12:52.287Z,18.45
2023-03-25T07:15:18.696Z,20.73
2023-03-25T07:17:45.274Z,23.08
2023-03-25T07:20:13.455Z,15.15
2023-03-25T07:22:41.223Z,19.77
2023-03-25T07:25:07.743Z,15.70
2023-03-25T07:27:34.129Z,16.30
2023-03-25T07:30:00.486Z,16.27
2023-03-25T07:32:26.847Z,16.73
2023-03-25T07:34:53.185Z,18.70
2023-03-25T07:37:19.626Z,18.08
2023-03-25T07:39:46.191Z,20.27
2023-03-25T07:42:12.550Z,20.13
2023-03-25T07:44:38.942Z,18.48
2023-03-25T07:47:05.631Z,16.02
2023-03-25T07:49:31.988Z,17.88
2023-03-25T07:51:58.351Z,16.80
2023-03-25T07:54:24.754Z,23.10
2023-03-25T07:56:52.884Z,13.82
2023-03-25T07:59:19.425Z,15.55
2023-03-25T08:01:46.102Z,16.63
2023-03-25T08:04:13.847Z,14.77
2023-03-25T08:06:40.447Z,18.80
2023-03-25T08:09:07.423Z,18.80
2023-03-25T08:11:34.527Z,16.75
2023-03-25T08:14:01.093Z,15.75
2023-03-25T08:16:27.677Z,25.10
2023-03-25T08:18:54.110Z,16.55
2023-03-25T08:21:25.554Z,22.08
2023-03-25T08:23:54.855Z,17.27
2023-03-25T08:26:21.274Z,20.00
2023-03-25T08:28:47.960Z,14.95
2023-03-25T08:31:15.265Z,14.15
2023-03-25T08:33:42.893Z,22.38
2023-03-25T08:36:13.773Z,18.33
2023-03-25T08:38:41.561Z,14.18
2023-03-25T08:41:07.988Z,19.45
2023-03-25T08:43:34.394Z,20.95
2023-03-25T08:46:01.090Z,18.00
2023-03-25T08:48:27.576Z,16.83
2023-03-25T08:50:53.974Z,18.05
2023-03-25T08:53:20.386Z,14.25
2023-03-25T08:55:46.766Z,16.23
2023-03-25T08:58:13.175Z,15.50
2023-03-25T09:00:39.509Z,20.60
2023-03-25T09:03:06.374Z,28.92
2023-03-25T09:05:33.100Z,27.98
2023-03-25T09:07:59.600Z,20.85
2023-03-25T09:10:27.042Z,19.65
2023-03-25T09:12:53.586Z,21.42
2023-03-25T09:15:20.030Z,16.38
2023-03-25T09:17:46.748Z,18.17
2023-03-25T09:20:13.305Z,20.83
2023-03-25T09:22:40.395Z,15.43
2023-03-25T09:25:07.712Z,20.15
2023-03-25T09:27:34.624Z,20.20
2023-03-25T09:30:01.442Z,23.10
2023-03-25T09:32:30.854Z,19.83
2023-03-25T09:34:57.304Z,18.95
2023-03-25T09:37:23.875Z,19.63
2023-03-25T09:39:50.307Z,21.10
2023-03-25T09:42:37.431Z,20.42
2023-03-25T09:45:11.921Z,11.48
2023-03-25T09:47:39.454Z,23.33
2023-03-25T09:50:11.052Z,24.05
2023-03-25T09:52:54.142Z,23.83
2023-03-25T09:55:24.430Z,20.70
2023-03-25T09:57:55.083Z,13.13
2023-03-25T10:00:28.908Z,22.83
2023-03-25T10:03:13.969Z,22.75
2023-03-25T10:05:40.527Z,15.90
2023-03-25T10:08:07.056Z,13.63
2023-03-25T10:10:52.442Z,23.38
2023-03-25T10:13:20.035Z,25.30
2023-03-25T10:15:58.603Z,25.75
2023-03-25T10:18:27.945Z,22.70
2023-03-25T10:21:03.321Z,20.13
2023-03-25T10:23:32.720Z,22.92
2023-03-25T10:26:01.610Z,23.02
2023-03-25T10:28:33.147Z,19.08
2023-03-25T10:31:00.519Z,22.25
2023-03-25T10:33:35.186Z,21.60
2023-03-25T10:36:02.201Z,21.10
2023-03-25T10:38:30.258Z,19.45
2023-03-25T10:41:05.273Z,19.90
2023-03-25T10:43:34.228Z,22.08
2023-03-25T10:46:19.491Z,17.25
2023-03-25T10:48:46.157Z,12.52
2023-03-25T10:51:24.545Z,18.40
2023-03-25T10:53:53.141Z,29.30
2023-03-25T10:56:34.340Z,12.70
2023-03-25T10:59:03.298Z,16.65
2023-03-25T11:01:37.351Z,14.20
2023-03-25T11:04:05.252Z,26.08
2023-03-25T11:06:33.076Z,12.80
2023-03-25T11:09:15.457Z,21.90
2023-03-25T11:11:42.250Z,23.80
2023-03-25T11:14:09.358Z,24.23
2023-03-25T11:16:36.788Z,14.02
2023-03-25T11:19:03.848Z,23.80
2023-03-25T11:21:35.449Z,18.38
2023-03-25T11:24:02.498Z,16.42
2023-03-25T11:26:34.093Z,15.20
2023-03-25T11:29:12.822Z,15.48
2023-03-25T11:31:44.462Z,20.92
2023-03-25T11:34:11.330Z,22.20
2023-03-25T11:36:47.551Z,18.23
2023-03-25T11:39:26.055Z,17.75
2023-03-25T11:41:52.528Z,19.13
2023-03-25T11:44:23.844Z,20.30
2023-03-25T11:46:51.887Z,18.23
2023-03-25T11:49:20.222Z,14.77
2023-03-25T11:51:47.006Z,15.77
2023-03-25T11:54:15.865Z,23.50
2023-03-25T11:56:44.976Z,19.15
2023-03-25T11:59:37.710Z,13.07
2023-03-25T12:02:17.506Z,26.05
2023-03-25T12:04:58.006Z,16.45
2023-03-25T12:07:24.676Z,21.95
2023-03-25T12:09:55.812Z,12.75
2023-03-25T12:12:42.482Z,18.83
2023-03-25T12:15:09.012Z,24.75
2023-03-25T12:17:47.476Z,20.85
2023-03-25T12:20:20.029Z,17.35
2023-03-25T12:22:55.738Z,16.13
2023-03-25T12:25:36.489Z,13.50
2023-03-25T12:28:10.653Z,13.15
2023-03-25T12:30:49.309Z,18.27
2023-03-25T12:33:16.410Z,14.25
2023-03-25T12:35:54.855Z,16.48
2023-03-25T12:38:21.232Z,14.13
2023-03-25T12:40:47.591Z,8.82
2023-03-25T12:43:22.445Z,12.60
2023-03-25T12:46:05.175Z,17.30
2023-03-25T12:48:34.314Z,8.95
2023-03-25T12:51:01.077Z,17.10
2023-03-25T12:53:46.454Z,12.38
2023-03-25T12:56:14.172Z,13.27
2023-03-25T12:58:40.737Z,14.73
2023-03-25T13:01:26.111Z,14.73
2023-03-25T13:03:55.612Z,14.90
2023-03-25T13:06:30.790Z,12.00
2023-03-25T13:08:57.107Z,22.05
2023-03-25T13:11:30.592Z,20.40
2023-03-25T13:13:58.697Z,15.05
2023-03-25T13:16:27.667Z,14.80
2023-03-25T13:18:58.058Z,13.68
2023-03-25T13:21:24.554Z,23.75
2023-03-25T13:23:54.536Z,16.27
2023-03-25T13:26:25.163Z,15.25
2023-03-25T13:28:56.038Z,11.73
2023-03-25T13:31:27.396Z,11.85
2023-03-25T13:33:57.174Z,16.83
2023-03-25T13:36:29.515Z,14.90
2023-03-25T13:39:06.544Z,26.88
2023-03-25T13:41:36.374Z,20.17
2023-03-25T13:44:02.767Z,22.08
2023-03-25T13:46:36.306Z,12.30
2023-03-25T13:49:10.500Z,19.17
2023-03-25T13:51:36.927Z,9.13
2023-03-25T13:54:06.982Z,17.80
2023-03-25T13:56:52.137Z,16.13
2023-03-25T13:59:40.312Z,19.13
2023-03-25T14:02:07.110Z,10.02
2023-03-25T14:05:00.195Z,13.93
2023-03-25T14:07:45.424Z,15.35
2023-03-25T14:10:14.534Z,6.07
2023-03-25T14:12:43.261Z,19.10
2023-03-25T14:15:15.263Z,15.27
2023-03-25T14:17:44.921Z,11.40
2023-03-25T14:20:12.470Z,12.38
2023-03-25T14:22:43.837Z,10.32
2023-03-25T14:25:33.413Z,11.88
2023-03-25T14:28:00.143Z,17.00
2023-03-25T14:30:30.443Z,15.70
2023-03-25T14:32:57.183Z,11.45
2023-03-25T14:35:36.679Z,18.63
2023-03-25T14:38:18.320Z,9.10
2023-03-25T14:41:02.140Z,7.63
2023-03-25T14:43:40.461Z,10.43
2023-03-25T14:46:13.364Z,8.80
2023-03-25T14:48:54.452Z,15.52
2023-03-25T14:51:30.497Z,10.68
2023-03-25T14:54:23.044Z,15.10
2023-03-25T14:57:15.930Z,13.95
2023-03-25T14:59:46.838Z,15.07
2023-03-25T15:02:20.754Z,13.70
2023-03-25T15:04:52.712Z,18.02
2023-03-25T15:07:37.490Z,11.05
2023-03-25T15:10:05.948Z,12.18
2023-03-25T15:12:32.542Z,11.05
2023-03-25T15:15:24.790Z,13.40
2023-03-25T15:17:51.206Z,13.88
2023-03-25T15:20:23.541Z,20.90
2023-03-25T15:23:08.817Z,16.65
2023-03-25T15:25:35.857Z,18.05
2023-03-25T15:28:26.164Z,20.50
2023-03-25T15:30:53.016Z,19.80
2023-03-25T15:33:19.746Z,16.90
2023-03-25T15:35:47.552Z,25.77
2023-03-25T15:38:19.739Z,20.88
2023-03-25T15:41:04.809Z,19.33
2023-03-25T15:44:00.572Z,19.92
2023-03-25T15:46:42.722Z,16.27
2023-03-25T15:49:21.458Z,19.60
2023-03-25T15:52:03.068Z,16.65
2023-03-25T15:54:35.417Z,14.10
2023-03-25T15:57:04.997Z,19.00
2023-03-25T15:59:35.972Z,11.88
2023-03-25T16:02:03.251Z,18.92
2023-03-25T16:04:29.646Z,10.52
2023-03-25T16:06:56.994Z,9.40
2023-03-25T16:09:27.257Z,15.25
2023-03-25T16:11:58.876Z,11.93
2023-03-25T16:14:28.759Z,12.18
2023-03-25T16:16:56.567Z,21.02
2023-03-25T16:19:25.402Z,16.17
2023-03-25T16:21:52.759Z,21.23
2023-03-25T16:24:23.461Z,16.45
2023-03-25T16:26:49.847Z,21.75
2023-03-25T16:29:18.299Z,19.85
2023-03-25T16:31:51.111Z,20.48
2023-03-25T16:34:17.625Z,19.52
2023-03-25T16:36:45.408Z,18.85
2023-03-25T16:39:13.829Z,18.98
2023-03-25T16:41:42.807Z,22.88
2023-03-25T16:44:13.245Z,20.52
2023-03-25T16:46:39.824Z,15.93
2023-03-25T16:49:07.160Z,12.50
2023-03-25T16:51:36.828Z,18.52
2023-03-25T16:54:08.148Z,12.95
2023-03-25T16:56:37.316Z,19.02
2023-03-25T16:59:08.036Z,15.57
2023-03-25T17:01:38.491Z,14.65
2023-03-25T17:04:07.886Z,9.82
2023-03-25T17:06:35.461Z,8.13
2023-03-25T17:09:02.285Z,13.63
2023-03-25T17:11:30.518Z,11.13
2023-03-25T17:14:02.489Z,14.27
2023-03-25T17:16:30.989Z,13.98
2023-03-25T17:18:57.882Z,14.15
2023-03-25T17:21:27.305Z,20.55
2023-03-25T17:23:54.594Z,10.18
2023-03-25T17:26:22.861Z,23.63
2023-03-25T17:28:58.671Z,20.73
2023-03-25T17:33:52.418Z,20.50
2023-03-25T17:36:19.633Z,18.60
2023-03-25T17:38:47.717Z,20.00
2023-03-25T17:41:15.388Z,30.20
2023-03-25T17:43:43.047Z,26.60
2023-03-25T17:46:10.167Z,24.50
2023-03-25T17:48:36.789Z,28.77
2023-03-25T17:51:03.380Z,22.92
2023-03-25T17:53:30.204Z,16.33
2023-03-25T17:55:59.075Z,23.33
2023-03-25T17:58:25.841Z,25.67
2023-03-25T18:00:53.001Z,17.35
2023-03-25T18:03:24.735Z,20.33
2023-03-25T18:05:53.706Z,16.77
2023-03-25T18:08:21.833Z,24.88
2023-03-25T18:10:48.919Z,31.90
2023-03-25T18:13:15.424Z,22.45
2023-03-25T18:15:42.257Z,22.98
2023-03-25T18:18:14.508Z,19.48
2023-03-25T18:20:41.263Z,23.70
2023-03-25T18:23:07.773Z,17.63
2023-03-25T18:25:34.177Z,20.50
2023-03-25T18:28:00.605Z,19.58
2023-03-25T18:30:28.692Z,21.20
2023-03-25T18:32:55.620Z,28.10
2023-03-25T18:35:22.113Z,26.80
2023-03-25T18:37:48.826Z,24.10
2023-03-25T18:40:15.484Z,26.88
2023-03-25T18:42:41.849Z,23.73
2023-03-25T18:45:08.546Z,24.15
2023-03-25T18:47:35.055Z,19.88
2023-03-25T18:50:01.561Z,34.90
2023-03-25T18:52:27.895Z,19.92
2023-03-25T18:54:54.278Z,23.70
2023-03-25T18:57:23.884Z,14.45
2023-03-25T18:59:50.621Z,17.80
2023-03-25T19:02:17.046Z,17.10
2023-03-25T19:04:59.670Z,21.98
2023-03-25T19:07:27.088Z,15.93
2023-03-25T19:09:54.165Z,18.58
2023-03-25T19:12:20.486Z,17.52
2023-03-25T19:14:46.845Z,17.10
2023-03-25T19:17:13.271Z,14.27
2023-03-25T19:19:40.926Z,8.93
2023-03-25T19:22:09.765Z,16.35
2023-03-25T19:24:36.108Z,16.58
2023-03-25T19:27:02.481Z,12.80
2023-03-25T19:29:29.201Z,16.17
2023-03-25T19:31:55.590Z,14.80
2023-03-25T19:34:22.199Z,14.27
2023-03-25T19:36:48.692Z,24.55
2023-03-25T19:39:15.965Z,12.82
2023-03-25T19:41:42.960Z,9.70
2023-03-25T19:44:09.463Z,18.52
2023-03-25T19:46:35.889Z,16.02
2023-03-25T19:49:02.437Z,10.35
2023-03-25T19:51:28.841Z,12.00
2023-03-25T19:53:55.312Z,15.80
2023-03-25T19:56:21.776Z,9.45
2023-03-25T19:58:48.121Z,10.10
2023-03-25T20:01:14.655Z,13.60
2023-03-25T20:03:41.959Z,9.38
2023-03-25T20:06:08.946Z,10.50
2023-03-25T20:08:35.702Z,12.38
2023-03-25T20:11:08.112Z,8.80
2023-03-25T20:13:35.863Z,9.02
2023-03-25T20:16:03.113Z,6.40
2023-03-25T20:18:29.758Z,7.55
2023-03-25T20:20:56.132Z,8.35
2023-03-25T20:23:22.747Z,7.82
2023-03-25T20:25:55.377Z,4.55
2023-03-25T20:28:22.812Z,6.65
2023-03-25T20:30:52.458Z,7.63
2023-03-25T20:33:19.199Z,6.53
2023-03-25T20:35:45.927Z,10.23
2023-03-25T20:38:14.308Z,6.35
2023-03-25T20:40:44.469Z,9.10
2023-03-25T20:43:13.745Z,7.88
2023-03-25T20:45:40.560Z,6.53
2023-03-25T20:48:08.712Z,6.55
2023-03-25T20:50:35.456Z,15.68
2023-03-25T20:53:01.789Z,13.85
2023-03-25T20:55:28.617Z,7.75
2023-03-25T20:57:55.001Z,8.82
2023-03-25T21:00:21.393Z,5.82
2023-03-25T21:02:50.258Z,11.77
2023-03-25T21:05:16.753Z,10.55
2023-03-25T21:07:43.141Z,13.52
2023-03-25T21:10:09.673Z,13.05
2023-03-25T21:12:43.788Z,8.63
2023-03-25T21:15:11.284Z,7.27
2023-03-25T21:17:37.936Z,7.97
2023-03-25T21:20:07.882Z,7.18
2023-03-25T21:22:34.369Z,14.70
2023-03-25T21:25:00.866Z,13.25
2023-03-25T21:27:38.566Z,12.00
2023-03-25T21:30:07.538Z,6.13
2023-03-25T21:32:33.935Z,9.85
2023-03-25T21:35:00.248Z,11.40
2023-03-25T21:37:27.400Z,8.35
2023-03-25T21:39:57.423Z,8.10
2023-03-25T21:42:23.759Z,4.35
2023-03-25T21:44:50.098Z,6.65
2023-03-25T21:47:17.775Z,10.48
2023-03-25T21:49:45.210Z,11.32
2023-03-25T21:52:12.974Z,7.70
2023-03-25T21:54:43.486Z,13.38
2023-03-25T21:57:11.139Z,7.25
2023-03-25T21:59:37.824Z,8.68
2023-03-25T22:02:04.210Z,11.52
2023-03-25T22:04:33.495Z,5.40
2023-03-25T22:07:00.144Z,17.70
2023-03-25T22:09:26.500Z,8.57
2023-03-25T22:11:52.859Z,7.50
2023-03-25T22:14:19.162Z,15.30
2023-03-25T22:16:45.718Z,6.95
2023-03-25T22:19:12.143Z,11.07
2023-03-25T22:21:38.631Z,10.13
2023-03-25T22:24:06.482Z,9.25
2023-03-25T22:26:33.319Z,10.30
2023-03-25T22:29:02.839Z,10.05
2023-03-25T22:31:31.038Z,12.73
2023-03-25T22:34:10.991Z,5.55
2023-03-25T22:36:38.693Z,6.32
2023-03-25T22:39:06.454Z,9.80
2023-03-25T22:41:33.234Z,6.45
2023-03-25T22:43:59.910Z,10.50
2023-03-25T22:46:26.338Z,10.82
2023-03-25T22:48:52.704Z,11.98
2023-03-25T22:51:20.356Z,8.18
2023-03-25T22:53:46.948Z,12.45
2023-03-25T22:56:13.888Z,10.63
2023-03-25T22:58:40.853Z,13.73
2023-03-25T23:01:17.420Z,4.13
2023-03-25T23:03:43.972Z,13.38
2023-03-25T23:06:10.381Z,6.05
2023-03-25T23:08:38.884Z,7.60
2023-03-25T23:11:13.166Z,5.80
2023-03-25T23:13:41.301Z,8.93
2023-03-25T23:16:18.917Z,6.28
2023-03-25T23:18:45.915Z,7.68
2023-03-25T23:21:16.322Z,9.25
2023-03-25T23:23:52.598Z,5.47
2023-03-25T23:26:22.251Z,6.30
2023-03-25T23:28:49.501Z,5.93
2023-03-25T23:31:20.318Z,7.13
2023-03-25T23:33:47.173Z,5.43
2023-03-25T23:36:14.210Z,14.43
2023-03-25T23:38:40.800Z,7.72
2023-03-25T23:41:08.293Z,5.90
2023-03-25T23:43:35.038Z,6.75
2023-03-25T23:46:02.005Z,6.57
2023-03-25T23:48:28.558Z,3.42
2023-03-25T23:50:56.713Z,7.47
2023-03-25T23:53:24.102Z,8.85
2023-03-25T23:55:52.324Z,5.32
2023-03-25T23:58:19.568Z,6.78
